Time;durP1;ratioP1;P1;durP2;ratioP2;P2;SDS_P1;SDS_P2;PMS_P1;PMS_P2;Temp;Humidity;BMP_temperature;BMP_pressure;BME280_temperature;BME280_humidity;BME280_pressure;Samples;Min_cycle;Max_cycle;Signal;HPM_P1;HPM_P2
2021/07/08 00:02:20;;;;;;;0.77;0.77;;;26.80;70.20;;;;;;5055188;28;20036;-79
2021/07/08 00:04:45;;;;;;;0.88;0.88;;;26.90;69.90;;;;;;5054497;28;20033;-78
2021/07/08 00:07:12;;;;;;;0.98;0.93;;;26.90;70.40;;;;;;5054431;28;20343;-78
2021/07/08 00:09:38;;;;;;;6.60;3.03;;;26.90;69.90;;;;;;5036895;28;20044;-76
2021/07/08 00:12:06;;;;;;;3.67;2.15;;;26.70;70.00;;;;;;5054977;28;20111;-78
2021/07/08 00:14:33;;;;;;;1.60;1.50;;;26.60;70.20;;;;;;5054267;28;20039;-77
2021/07/08 00:16:59;;;;;;;1.58;1.48;;;26.50;70.40;;;;;;5054695;28;20546;-78
2021/07/08 00:19:25;;;;;;;2.75;2.13;;;26.50;70.80;;;;;;5054282;28;20040;-78
2021/07/08 00:21:51;;;;;;;3.80;1.23;;;26.60;70.40;;;;;;5036713;28;20037;-76
2021/07/08 00:24:17;;;;;;;5.72;3.85;;;26.60;70.10;;;;;;5054583;28;20041;-79
2021/07/08 00:26:42;;;;;;;1.30;1.20;;;26.70;70.40;;;;;;5054450;28;20065;-77
2021/07/08 00:29:08;;;;;;;1.10;1.00;;;26.50;70.20;;;;;;5036137;28;20035;-77
2021/07/08 00:31:34;;;;;;;3.92;2.20;;;26.50;70.60;;;;;;5054403;28;20028;-76
2021/07/08 00:34:01;;;;;;;0.68;0.68;;;26.40;71.50;;;;;;5054416;28;20025;-77
2021/07/08 00:36:29;;;;;;;0.80;0.80;;;26.10;71.50;;;;;;5054147;28;20071;-76
2021/07/08 00:38:55;;;;;;;1.35;1.25;;;26.10;72.10;;;;;;5054318;28;20087;-78
2021/07/08 00:41:22;;;;;;;1.70;1.50;;;26.20;72.00;;;;;;5035932;28;20140;-78
2021/07/08 00:43:51;;;;;;;1.13;1.05;;;26.30;72.50;;;;;;5053566;28;20095;-80
2021/07/08 00:46:18;;;;;;;2.22;1.70;;;26.30;72.80;;;;;;5056241;28;20037;-80
2021/07/08 00:48:43;;;;;;;0.90;0.90;;;26.20;71.70;;;;;;5073733;28;20086;-79
2021/07/08 00:51:09;;;;;;;0.90;0.90;;;26.10;72.60;;;;;;5056103;28;20032;-79
2021/07/08 00:53:35;;;;;;;1.70;1.60;;;26.00;72.50;;;;;;5073709;28;20040;-78
2021/07/08 00:56:03;;;;;;;1.95;0.90;;;26.10;73.30;;;;;;5055334;28;20080;-78
2021/07/08 00:58:29;;;;;;;1.33;1.23;;;26.20;72.80;;;;;;5073548;28;20036;-76
2021/07/08 01:00:55;;;;;;;1.25;1.15;;;26.10;73.10;;;;;;5055804;28;20056;-78
2021/07/08 01:03:23;;;;;;;1.20;1.08;;;26.10;73.30;;;;;;5073855;28;20490;-78
2021/07/08 01:05:52;;;;;;;5.45;1.15;;;26.20;72.90;;;;;;5072443;28;20036;-78
2021/07/08 01:08:18;;;;;;;1.05;0.95;;;26.20;73.10;;;;;;5055363;28;20121;-79
2021/07/08 01:10:46;;;;;;;0.77;0.77;;;26.20;72.20;;;;;;5073550;28;20491;-78
2021/07/08 01:13:15;;;;;;;0.80;0.80;;;26.10;72.00;;;;;;5073293;28;20036;-76
2021/07/08 01:15:42;;;;;;;0.98;0.95;;;26.00;72.50;;;;;;5073641;28;20044;-77
2021/07/08 01:18:08;;;;;;;0.68;0.68;;;26.10;72.90;;;;;;5073524;28;20024;-77
2021/07/08 01:20:35;;;;;;;1.23;1.10;;;26.00;72.90;;;;;;5073309;28;20130;-78
2021/07/08 01:23:01;;;;;;;2.92;2.25;;;26.00;72.70;;;;;;5072895;28;20052;-77
2021/07/08 01:25:36;;;;;;;1.73;1.48;;;26.10;73.10;;;;;;5073239;28;20051;-77
2021/07/08 01:28:05;;;;;;;0.95;0.82;;;26.00;72.90;;;;;;5072834;28;20021;-77
2021/07/08 01:30:31;;;;;;;12.32;2.35;;;25.90;73.10;;;;;;5073174;28;20043;-77
2021/07/08 01:32:58;;;;;;;0.60;0.60;;;25.90;74.20;;;;;;5073558;28;20028;-77
2021/07/08 01:35:25;;;;;;;0.85;0.85;;;25.90;73.80;;;;;;5073131;28;20035;-79
2021/07/08 01:37:51;;;;;;;0.90;0.90;;;25.90;74.40;;;;;;5072852;28;20081;-77
2021/07/08 01:40:18;;;;;;;1.33;1.23;;;25.70;74.90;;;;;;5072965;28;20036;-79
2021/07/08 01:42:44;;;;;;;1.70;1.60;;;25.60;75.50;;;;;;5072400;28;20032;-78
2021/07/08 01:45:14;;;;;;;2.67;1.50;;;25.60;75.10;;;;;;5072856;28;20113;-79
2021/07/08 01:47:42;;;;;;;0.68;0.68;;;25.70;75.30;;;;;;5060512;28;20036;-76
2021/07/08 01:50:12;;;;;;;1.25;1.15;;;25.60;75.70;;;;;;5052514;28;20110;-77
2021/07/08 01:52:38;;;;;;;3.50;1.73;;;25.50;75.40;;;;;;5052998;28;20037;-77
2021/07/08 01:55:04;;;;;;;4.28;1.63;;;25.50;75.50;;;;;;5052857;28;20033;-78
2021/07/08 01:57:29;;;;;;;1.80;1.08;;;25.40;75.50;;;;;;5052322;28;20041;-77
2021/07/08 01:59:55;;;;;;;1.23;1.15;;;25.40;76.10;;;;;;5051849;28;20036;-78
2021/07/08 02:02:21;;;;;;;0.75;0.75;;;25.40;77.00;;;;;;5052643;28;20029;-75
2021/07/08 02:04:47;;;;;;;3.30;1.60;;;25.50;76.80;;;;;;5052378;28;20025;-78
2021/07/08 02:07:12;;;;;;;0.98;0.90;;;25.40;77.00;;;;;;5052411;28;20036;-77
2021/07/08 02:09:38;;;;;;;1.20;1.10;;;25.40;76.40;;;;;;5052691;28;20126;-77
2021/07/08 02:12:05;;;;;;;1.20;1.10;;;25.40;77.60;;;;;;5051952;28;20037;-76
2021/07/08 02:14:30;;;;;;;0.70;0.70;;;25.40;78.10;;;;;;5052433;28;20480;-75
2021/07/08 02:17:30;;;;;;;1.25;1.15;;;25.50;78.10;;;;;;5051971;28;20477;-76
2021/07/08 02:19:56;;;;;;;1.05;1.00;;;25.50;77.90;;;;;;5051749;28;20033;-78
2021/07/08 02:22:22;;;;;;;0.90;0.88;;;25.50;77.90;;;;;;5052041;28;20029;-77
2021/07/08 02:24:47;;;;;;;0.90;0.90;;;25.40;77.60;;;;;;5052244;28;20377;-77
2021/07/08 02:27:13;;;;;;;0.80;0.80;;;25.40;77.30;;;;;;5052125;28;20578;-77
2021/07/08 02:29:39;;;;;;;0.60;0.60;;;25.20;77.50;;;;;;5052021;28;20086;-77
2021/07/08 02:32:07;;;;;;;0.90;0.90;;;25.20;77.80;;;;;;5051852;28;20036;-78
2021/07/08 02:34:33;;;;;;;0.70;0.70;;;25.10;77.80;;;;;;5051868;28;20056;-77
2021/07/08 02:36:59;;;;;;;0.90;0.90;;;24.90;77.40;;;;;;5034340;28;20456;-78
2021/07/08 02:39:24;;;;;;;0.90;0.90;;;24.70;79.60;;;;;;5051201;28;20546;-78
2021/07/08 02:41:50;;;;;;;1.02;0.90;;;24.80;78.80;;;;;;5051798;28;20453;-78
2021/07/08 02:44:16;;;;;;;0.88;0.88;;;25.00;78.60;;;;;;5052076;28;20090;-77
2021/07/08 02:46:42;;;;;;;1.15;1.05;;;25.20;78.20;;;;;;5054487;28;20404;-78
2021/07/08 02:49:07;;;;;;;0.80;0.80;;;25.20;77.80;;;;;;5071430;28;20108;-75
2021/07/08 02:51:33;;;;;;;2.60;1.73;;;25.20;78.10;;;;;;5071441;28;20107;-75
2021/07/08 02:53:59;;;;;;;1.00;1.00;;;25.10;78.30;;;;;;5071571;28;20040;-76
2021/07/08 02:56:24;;;;;;;2.05;1.55;;;25.20;78.20;;;;;;5071363;28;20044;-74
2021/07/08 02:58:50;;;;;;;6.22;2.33;;;25.10;78.00;;;;;;5071562;28;20123;-76
2021/07/08 03:01:16;;;;;;;1.00;0.95;;;25.00;78.10;;;;;;5071292;28;20145;-77
2021/07/08 03:03:42;;;;;;;1.63;1.27;;;25.00;78.80;;;;;;5071313;28;20056;-76
2021/07/08 03:06:07;;;;;;;1.10;1.05;;;24.90;79.10;;;;;;5071212;28;20036;-76
2021/07/08 03:08:33;;;;;;;0.90;0.90;;;24.80;79.50;;;;;;5071356;28;20041;-75
2021/07/08 03:10:59;;;;;;;4.03;1.52;;;24.90;79.80;;;;;;5071228;28;20036;-75
2021/07/08 03:13:25;;;;;;;1.40;1.30;;;25.00;79.20;;;;;;5071051;28;20064;-76
2021/07/08 03:15:50;;;;;;;0.93;0.93;;;25.00;78.60;;;;;;5071259;28;20451;-78
2021/07/08 03:18:16;;;;;;;1.45;1.35;;;25.00;78.60;;;;;;5053067;28;20112;-78
2021/07/08 03:20:45;;;;;;;1.52;1.42;;;24.90;79.00;;;;;;5071055;28;20040;-78
2021/07/08 03:23:11;;;;;;;1.02;1.02;;;24.70;79.90;;;;;;5071171;28;20045;-76
2021/07/08 03:25:37;;;;;;;1.33;1.08;;;24.70;79.60;;;;;;5071642;28;20028;-77
2021/07/08 03:28:04;;;;;;;1.52;1.42;;;24.70;79.80;;;;;;5052845;28;20082;-77
2021/07/08 03:30:30;;;;;;;4.07;2.75;;;24.70;79.60;;;;;;5074475;28;20036;-77
2021/07/08 03:32:57;;;;;;;0.73;0.73;;;24.70;79.70;;;;;;5075560;28;20038;-76
2021/07/08 03:35:24;;;;;;;10.82;2.05;;;24.70;79.20;;;;;;5075260;28;20035;-78
2021/07/08 03:37:50;;;;;;;2.25;1.63;;;24.70;79.30;;;;;;5075049;28;20025;-77
2021/07/08 03:40:17;;;;;;;1.40;1.30;;;24.70;79.10;;;;;;5075399;28;20045;-79
2021/07/08 03:42:44;;;;;;;2.35;2.15;;;24.70;79.00;;;;;;5074935;28;20044;-77
2021/07/08 03:45:11;;;;;;;1.25;1.15;;;24.80;78.70;;;;;;5075511;28;20086;-77
2021/07/08 03:47:37;;;;;;;1.65;1.52;;;24.80;78.70;;;;;;5066241;28;20548;-76
2021/07/08 03:50:08;;;;;;;1.80;1.08;;;24.80;78.70;;;;;;5054983;28;20065;-77
2021/07/08 03:52:34;;;;;;;2.30;1.48;;;24.80;78.60;;;;;;5054919;28;20120;-77
2021/07/08 03:54:59;;;;;;;1.73;1.33;;;24.80;78.70;;;;;;5054961;28;20120;-77
2021/07/08 03:57:25;;;;;;;2.13;1.95;;;24.80;78.90;;;;;;5054890;28;20389;-77
2021/07/08 03:59:51;;;;;;;1.48;1.35;;;24.80;79.20;;;;;;5054453;28;20049;-76
2021/07/08 04:02:17;;;;;;;0.85;0.82;;;24.80;78.80;;;;;;5054842;28;20033;-75
2021/07/08 04:04:43;;;;;;;1.33;1.23;;;24.80;78.60;;;;;;5036961;28;20481;-76
2021/07/08 04:07:09;;;;;;;1.55;1.45;;;24.90;78.50;;;;;;5054288;28;20025;-77
2021/07/08 04:09:35;;;;;;;1.52;1.42;;;25.00;78.60;;;;;;5054958;28;20431;-76
2021/07/08 04:12:01;;;;;;;1.92;1.73;;;25.20;78.30;;;;;;5054656;28;20113;-77
2021/07/08 04:14:27;;;;;;;0.82;0.82;;;25.20;78.10;;;;;;5054317;28;20044;-80
2021/07/08 04:16:53;;;;;;;1.95;1.75;;;25.20;78.20;;;;;;5054367;28;20121;-79
2021/07/08 04:19:19;;;;;;;1.33;1.23;;;25.10;78.60;;;;;;5054589;28;20031;-77
2021/07/08 04:21:45;;;;;;;0.98;0.98;;;25.10;79.30;;;;;;5053984;28;20033;-77
2021/07/08 04:24:10;;;;;;;1.23;1.13;;;25.00;80.70;;;;;;5054129;28;20123;-78
2021/07/08 04:26:36;;;;;;;1.17;1.08;;;25.20;80.30;;;;;;5054356;28;20044;-77
2021/07/08 04:29:03;;;;;;;2.70;1.23;;;25.20;79.60;;;;;;5053918;28;20032;-78
2021/07/08 04:31:29;;;;;;;0.80;0.80;;;25.30;79.50;;;;;;5054616;28;20043;-76
2021/07/08 04:33:55;;;;;;;2.45;1.60;;;25.30;79.90;;;;;;5053556;28;20033;-76
2021/07/08 04:36:21;;;;;;;1.33;1.23;;;25.30;79.40;;;;;;5054231;28;20100;-76
2021/07/08 04:38:51;;;;;;;2.00;1.63;;;25.20;79.30;;;;;;5053886;28;20129;-76
2021/07/08 04:41:17;;;;;;;;;;;25.30;78.70;;;;;;5054367;28;20044;-78
2021/07/08 04:43:43;;;;;;;1.60;1.50;;;25.30;78.40;;;;;;5053567;28;19920;-78
2021/07/08 04:46:09;;;;;;;2.10;1.90;;;25.40;78.90;;;;;;5053933;28;20045;-77
2021/07/08 04:48:36;;;;;;;0.93;0.93;;;25.00;78.60;;;;;;5068959;28;20108;-77
2021/07/08 04:51:02;;;;;;;0.90;0.90;;;24.60;78.80;;;;;;5073931;28;20090;-76
2021/07/08 04:53:28;;;;;;;2.00;1.63;;;24.80;79.70;;;;;;5073448;28;20112;-78
2021/07/08 04:55:54;;;;;;;1.85;1.73;;;25.10;79.10;;;;;;5074076;28;20132;-77
2021/07/08 04:58:19;;;;;;;1.00;1.00;;;25.10;77.80;;;;;;5073868;28;20107;-76
2021/07/08 05:00:45;;;;;;;1.48;1.38;;;25.00;78.70;;;;;;5051687;28;20405;-77
2021/07/08 05:03:11;;;;;;;1.50;1.40;;;25.00;78.60;;;;;;5053576;28;20048;-78
2021/07/08 05:05:38;;;;;;;0.95;0.93;;;25.10;79.10;;;;;;5053325;28;20044;-77
2021/07/08 05:08:07;;;;;;;1.17;1.08;;;25.30;78.80;;;;;;5052996;28;20468;-76
2021/07/08 05:10:33;;;;;;;0.93;0.93;;;25.40;78.60;;;;;;5053519;28;20040;-77
2021/07/08 05:12:59;;;;;;;0.70;0.70;;;25.50;78.40;;;;;;5053101;28;20385;-79
2021/07/08 05:15:25;;;;;;;0.60;0.60;;;25.50;78.10;;;;;;5053385;28;20029;-78
2021/07/08 05:17:51;;;;;;;1.30;1.20;;;25.60;79.60;;;;;;5035508;28;20044;-78
2021/07/08 05:20:17;;;;;;;4.68;2.83;;;25.70;79.40;;;;;;5052945;28;20048;-79
2021/07/08 05:22:46;;;;;;;1.10;1.00;;;25.80;79.50;;;;;;5052907;28;20362;-78
2021/07/08 05:25:17;;;;;;;1.20;1.10;;;25.90;80.70;;;;;;5035369;28;20033;-77
2021/07/08 05:27:42;;;;;;;;;;;25.90;79.50;;;;;;5053750;28;20029;-79
2021/07/08 05:30:09;;;;;;;3.20;2.10;;;25.90;79.60;;;;;;5034993;28;20284;-79
2021/07/08 05:32:35;;;;;;;1.48;1.38;;;26.00;79.50;;;;;;5052986;28;20511;-78
2021/07/08 05:35:02;;;;;;;1.45;1.33;;;25.90;79.80;;;;;;5052888;28;20029;-77
2021/07/08 05:37:28;;;;;;;1.13;1.02;;;25.90;79.60;;;;;;5052760;28;20056;-78
2021/07/08 05:39:54;;;;;;;5.13;3.75;;;25.80;80.10;;;;;;5053159;28;20091;-75
2021/07/08 05:42:20;;;;;;;8.82;4.43;;;25.80;80.10;;;;;;5052686;28;20057;-76
2021/07/08 05:44:45;;;;;;;4.55;4.13;;;25.90;79.70;;;;;;5052793;28;20041;-78
2021/07/08 05:47:12;;;;;;;0.70;0.70;;;26.00;79.90;;;;;;5055524;28;20033;-78
2021/07/08 05:49:38;;;;;;;4.45;3.08;;;25.60;80.20;;;;;;5072404;28;20082;-77
2021/07/08 05:52:04;;;;;;;4.40;2.03;;;25.80;81.00;;;;;;5072295;28;20032;-76
2021/07/08 05:54:31;;;;;;;3.17;2.92;;;26.10;80.40;;;;;;5054516;28;20132;-78
2021/07/08 05:56:57;;;;;;;4.95;2.13;;;26.00;78.70;;;;;;5054655;28;20144;-74
2021/07/08 05:59:25;;;;;;;1.23;1.13;;;26.10;78.30;;;;;;5072364;28;20024;-75
2021/07/08 06:01:51;;;;;;;0.75;0.75;;;26.10;78.40;;;;;;5072266;28;20029;-76
2021/07/08 06:04:17;;;;;;;2.25;2.05;;;26.20;78.70;;;;;;5072237;28;20032;-76
2021/07/08 06:06:42;;;;;;;1.30;1.20;;;26.30;79.60;;;;;;5072505;28;20032;-76
2021/07/08 06:09:08;;;;;;;0.95;0.90;;;26.30;78.60;;;;;;5071754;28;20040;-76
2021/07/08 06:11:34;;;;;;;1.55;1.23;;;26.30;78.40;;;;;;5072637;28;20035;-77
2021/07/08 06:14:00;;;;;;;3.13;1.05;;;26.30;77.50;;;;;;5072045;28;20078;-77
2021/07/08 06:16:25;;;;;;;1.15;1.10;;;26.40;76.90;;;;;;5054328;28;20028;-75
2021/07/08 06:18:51;;;;;;;2.15;1.15;;;26.40;76.90;;;;;;5071826;28;20106;-76
2021/07/08 06:21:17;;;;;;;14.38;8.13;;;26.50;77.80;;;;;;5071697;28;20037;-75
2021/07/08 06:23:42;;;;;;;18.00;11.23;;;26.60;77.70;;;;;;5072357;28;20040;-77
2021/07/08 06:26:08;;;;;;;15.30;6.05;;;26.70;77.80;;;;;;5072341;28;20035;-78
2021/07/08 06:28:35;;;;;;;1.70;1.58;;;26.80;77.00;;;;;;5071604;28;20392;-78
2021/07/08 06:31:01;;;;;;;3.20;2.85;;;26.90;78.20;;;;;;5071540;28;20029;-78
2021/07/08 06:33:27;;;;;;;1.50;1.40;;;26.80;77.30;;;;;;5071600;28;20033;-77
2021/07/08 06:35:52;;;;;;;2.95;2.45;;;26.80;77.30;;;;;;5071518;28;20039;-79
2021/07/08 06:38:18;;;;;;;1.83;1.48;;;26.90;76.70;;;;;;5072063;28;20119;-79
2021/07/08 06:40:44;;;;;;;3.70;1.83;;;27.10;77.30;;;;;;5071019;28;20068;-78
2021/07/08 06:43:10;;;;;;;3.30;2.08;;;27.20;75.70;;;;;;5071575;28;20481;-78
2021/07/08 06:45:36;;;;;;;1.55;1.35;;;27.30;75.70;;;;;;5071825;28;20032;-79
2021/07/08 06:48:04;;;;;;;0.93;0.88;;;27.30;77.20;;;;;;5063755;28;20536;-79
2021/07/08 06:50:35;;;;;;;1.00;0.98;;;27.20;76.40;;;;;;5051362;28;20430;-79
2021/07/08 06:53:05;;;;;;;1.30;1.15;;;27.10;76.10;;;;;;5051683;28;20485;-79
2021/07/08 06:55:31;;;;;;;1.40;1.30;;;27.20;76.60;;;;;;5051250;28;20059;-79
2021/07/08 06:57:57;;;;;;;0.63;0.63;;;27.10;76.50;;;;;;5051739;28;20448;-79
2021/07/08 07:00:42;;;;;;;3.20;1.60;;;27.10;75.60;;;;;;5051092;28;20694;-78
2021/07/08 07:03:08;;;;;;;2.05;1.25;;;27.10;75.70;;;;;;5051364;28;20032;-78
2021/07/08 07:05:34;;;;;;;1.05;0.95;;;27.40;75.30;;;;;;5050814;28;20524;-78
2021/07/08 07:08:00;;;;;;;0.77;0.77;;;27.40;74.30;;;;;;5051139;28;20420;-78
2021/07/08 07:10:27;;;;;;;0.80;0.70;;;27.40;74.20;;;;;;5051480;28;20481;-78
2021/07/08 07:12:55;;;;;;;0.85;0.85;;;27.30;73.70;;;;;;5051177;28;20033;-78
2021/07/08 07:15:25;;;;;;;1.90;1.23;;;27.30;74.70;;;;;;5050940;28;20037;-79
2021/07/08 07:17:51;;;;;;;;;;;27.50;76.00;;;;;;5051842;28;20476;-78
2021/07/08 07:20:19;;;;;;;0.80;0.80;;;27.60;75.10;;;;;;5050815;28;20399;-78
2021/07/08 07:22:45;;;;;;;0.90;0.90;;;27.70;74.80;;;;;;5051256;28;20032;-78
2021/07/08 07:25:13;;;;;;;0.60;0.60;;;27.70;74.20;;;;;;5051243;28;20510;-79
2021/07/08 07:27:39;;;;;;;1.38;1.27;;;27.80;73.80;;;;;;5051314;28;20033;-79
2021/07/08 07:30:06;;;;;;;2.03;1.38;;;27.90;73.90;;;;;;5042521;28;20022;-80
2021/07/08 07:32:33;;;;;;;0.55;0.55;;;28.00;73.60;;;;;;5051277;28;20036;-78
2021/07/08 07:34:59;;;;;;;0.80;0.80;;;28.10;73.60;;;;;;5051028;28;20032;-79
2021/07/08 07:37:26;;;;;;;0.68;0.68;;;28.20;73.40;;;;;;5033174;28;20083;-78
2021/07/08 07:39:52;;;;;;;1.10;1.00;;;28.20;73.60;;;;;;5050927;28;20060;-79
2021/07/08 07:42:19;;;;;;;1.38;1.27;;;28.30;72.90;;;;;;5050949;28;20045;-77
2021/07/08 07:44:47;;;;;;;0.88;0.88;;;28.30;72.60;;;;;;5050645;28;20021;-79
2021/07/08 07:47:13;;;;;;;1.60;1.50;;;28.30;73.00;;;;;;5050921;28;20056;-80
2021/07/08 07:49:39;;;;;;;1.45;1.27;;;28.20;72.80;;;;;;5070452;28;20036;-78
2021/07/08 07:52:06;;;;;;;0.60;0.60;;;28.10;72.80;;;;;;5071189;28;20391;-78
2021/07/08 07:54:35;;;;;;;2.17;1.40;;;28.20;72.30;;;;;;5070963;28;20090;-78
2021/07/08 07:57:05;;;;;;;1.15;1.05;;;28.20;72.00;;;;;;5070988;28;20546;-77
2021/07/08 07:59:37;;;;;;;1.27;1.20;;;28.30;71.90;;;;;;5052315;28;20123;-79
2021/07/08 08:02:09;;;;;;;1.02;0.90;;;28.50;71.60;;;;;;5070815;28;20033;-79
2021/07/08 08:04:41;;;;;;;1.20;1.10;;;28.60;71.60;;;;;;5052828;28;20025;-78
2021/07/08 08:09:51;;;;;;;0.90;0.82;;;28.80;71.10;;;;;;5071011;28;20567;-78
2021/07/08 08:12:17;;;;;;;1.08;0.98;;;28.80;70.80;;;;;;5070675;28;20111;-77
2021/07/08 08:14:42;;;;;;;0.70;0.70;;;28.90;70.80;;;;;;5070780;28;20108;-79
2021/07/08 08:17:08;;;;;;;0.98;0.95;;;29.00;69.90;;;;;;5074551;28;20473;-79
2021/07/08 08:19:34;;;;;;;0.88;0.85;;;29.00;70.20;;;;;;5073660;28;20041;-80
2021/07/08 08:21:59;;;;;;;2.42;2.00;;;29.10;70.00;;;;;;5074569;28;20396;-80
2021/07/08 08:24:25;;;;;;;1.05;0.90;;;29.10;70.10;;;;;;5074678;28;20456;-80
2021/07/08 08:26:52;;;;;;;0.63;0.63;;;29.20;69.60;;;;;;5056504;28;20040;-78
2021/07/08 08:29:19;;;;;;;1.77;1.17;;;29.10;69.90;;;;;;5055910;28;20098;-79
2021/07/08 08:31:45;;;;;;;0.50;0.50;;;29.20;69.70;;;;;;5056167;28;20036;-79
2021/07/08 08:34:10;;;;;;;0.70;0.70;;;29.20;69.20;;;;;;5056119;28;20032;-78
2021/07/08 08:36:37;;;;;;;0.50;0.50;;;29.30;69.10;;;;;;5055911;28;20035;-79
2021/07/08 08:39:03;;;;;;;1.17;1.10;;;29.20;68.70;;;;;;5074240;28;20107;-79
2021/07/08 08:41:32;;;;;;;0.75;0.70;;;29.40;68.90;;;;;;5073519;28;20083;-78
2021/07/08 08:43:57;;;;;;;1.58;1.48;;;29.40;68.10;;;;;;5073846;28;20400;-79
2021/07/08 08:46:23;;;;;;;3.70;1.15;;;29.40;67.40;;;;;;5073994;28;20490;-80
2021/07/08 08:48:49;;;;;;;1.10;1.00;;;29.50;66.60;;;;;;5044238;28;20043;-78
2021/07/08 08:51:15;;;;;;;0.85;0.82;;;29.50;67.60;;;;;;5053808;28;20043;-79
2021/07/08 08:53:41;;;;;;;0.57;0.57;;;29.50;67.50;;;;;;5053784;28;20452;-79
2021/07/08 08:56:07;;;;;;;1.42;1.33;;;29.60;67.30;;;;;;5053459;28;20056;-80
2021/07/08 08:58:33;;;;;;;0.70;0.65;;;29.80;67.40;;;;;;5053302;28;20113;-79
2021/07/08 09:01:03;;;;;;;1.38;1.08;;;29.90;67.30;;;;;;5053527;28;20473;-80
2021/07/08 09:03:31;;;;;;;1.35;1.08;;;30.00;67.70;;;;;;5053518;28;20083;-78
2021/07/08 09:06:14;;;;;;;0.50;0.50;;;30.10;67.00;;;;;;5053448;28;20041;-79
2021/07/08 09:08:47;;;;;;;0.65;0.65;;;30.20;68.00;;;;;;5053544;28;20041;-79
2021/07/08 09:11:25;;;;;;;0.80;0.80;;;30.50;67.30;;;;;;5053079;28;20087;-79
2021/07/08 09:13:53;;;;;;;1.05;0.88;;;30.60;67.80;;;;;;5053361;28;20040;-79
2021/07/08 09:16:20;;;;;;;1.50;0.98;;;30.70;68.10;;;;;;5053129;28;20079;-79
2021/07/08 09:19:15;;;;;;;0.50;0.50;;;30.90;66.60;;;;;;5053214;28;20106;-79
2021/07/08 09:21:44;;;;;;;0.77;0.60;;;31.20;66.60;;;;;;5044588;28;20047;-77
2021/07/08 09:24:17;;;;;;;1.27;0.80;;;31.20;65.80;;;;;;5053396;28;20041;-79
2021/07/08 09:26:57;;;;;;;0.60;0.60;;;31.20;65.60;;;;;;5052209;28;20033;-79
2021/07/08 09:29:32;;;;;;;0.75;0.73;;;31.40;65.20;;;;;;5053057;28;20029;-78
2021/07/08 09:32:02;;;;;;;0.88;0.70;;;31.40;65.50;;;;;;5053261;28;20491;-80
2021/07/08 09:34:30;;;;;;;0.85;0.60;;;31.30;65.40;;;;;;5052750;28;20118;-80
2021/07/08 09:37:13;;;;;;;2.13;1.42;;;31.50;65.30;;;;;;5053032;28;20021;-79
2021/07/08 09:39:43;;;;;;;0.80;0.70;;;32.00;64.70;;;;;;5053088;28;20037;-80
2021/07/08 09:42:11;;;;;;;1.48;1.08;;;32.10;64.50;;;;;;5052964;28;20485;-80
2021/07/08 09:44:38;;;;;;;0.63;0.52;;;32.10;63.70;;;;;;5053034;28;20041;-79
2021/07/08 09:47:05;;;;;;;0.55;0.50;;;32.10;63.80;;;;;;5052722;28;20392;-78
2021/07/08 09:49:30;;;;;;;0.90;0.82;;;32.40;63.30;;;;;;5068176;28;20032;-79
2021/07/08 09:51:57;;;;;;;0.63;0.60;;;32.40;62.80;;;;;;5072781;28;20036;-78
2021/07/08 09:57:40;;;;;;;1.63;0.90;;;32.70;62.60;;;;;;5072658;28;20415;-80
2021/07/08 10:00:28;;;;;;;0.60;0.57;;;33.00;62.10;;;;;;5072291;28;20046;-80
2021/07/08 10:02:55;;;;;;;0.68;0.60;;;32.60;62.40;;;;;;5072473;28;20032;-80
2021/07/08 10:05:23;;;;;;;1.05;0.65;;;32.60;62.50;;;;;;5072606;28;20024;-79
2021/07/08 10:07:49;;;;;;;0.85;0.82;;;32.50;63.10;;;;;;5072457;28;20416;-79
2021/07/08 10:10:16;;;;;;;0.85;0.47;;;32.70;62.50;;;;;;5072462;28;20550;-80
2021/07/08 10:12:45;;;;;;;1.05;0.63;;;32.90;61.40;;;;;;5072325;28;20024;-78
2021/07/08 10:15:12;;;;;;;0.45;0.40;;;32.90;61.50;;;;;;5072066;28;20036;-80
2021/07/08 10:17:40;;;;;;;0.63;0.60;;;33.00;61.30;;;;;;5072076;28;20073;-80
2021/07/08 10:20:11;;;;;;;0.47;0.47;;;33.30;60.40;;;;;;5072188;28;20028;-79
2021/07/08 10:22:38;;;;;;;0.65;0.55;;;33.20;60.50;;;;;;5072218;28;20044;-80
2021/07/08 10:25:05;;;;;;;0.30;0.30;;;33.20;60.40;;;;;;5072142;28;20036;-80
2021/07/08 10:27:32;;;;;;;1.60;1.08;;;33.40;60.50;;;;;;5072089;28;20033;-79
2021/07/08 10:30:01;;;;;;;1.27;0.98;;;33.40;60.60;;;;;;5072022;28;20028;-79
2021/07/08 10:32:27;;;;;;;0.40;0.40;;;33.50;60.10;;;;;;5071722;28;20036;-80
2021/07/08 10:34:54;;;;;;;3.03;0.82;;;33.40;60.10;;;;;;5071742;28;20036;-78
2021/07/08 10:37:26;;;;;;;0.60;0.60;;;33.60;60.50;;;;;;5053853;28;20032;-78
2021/07/08 10:39:52;;;;;;;0.95;0.73;;;33.60;60.30;;;;;;5071927;28;20040;-79
2021/07/08 10:42:37;;;;;;;0.60;0.60;;;33.50;59.90;;;;;;5071703;28;20106;-80
2021/07/08 10:45:02;;;;;;;0.40;0.40;;;33.60;59.90;;;;;;5053769;28;20071;-80
2021/07/08 10:47:32;;;;;;;0.30;0.30;;;33.80;59.10;;;;;;5071341;28;20056;-81
2021/07/08 10:49:58;;;;;;;1.38;1.13;;;33.90;58.50;;;;;;5036089;28;20454;-80
2021/07/08 10:52:43;;;;;;;0.43;0.43;;;33.80;59.40;;;;;;5051413;28;20481;-79
2021/07/08 10:55:10;;;;;;;0.70;0.60;;;33.90;59.60;;;;;;5030450;28;20080;-78
2021/07/08 10:57:37;;;;;;;0.80;0.75;;;33.60;59.10;;;;;;5030192;28;20033;-79
2021/07/08 11:00:06;;;;;;;0.65;0.50;;;33.60;59.10;;;;;;5050995;28;20025;-80
2021/07/08 11:02:49;;;;;;;0.80;0.75;;;33.50;59.30;;;;;;5051582;28;20048;-80
2021/07/08 11:05:54;;;;;;;0.95;0.73;;;33.70;59.40;;;;;;5051694;28;20428;-79
2021/07/08 11:08:45;;;;;;;0.73;0.73;;;33.90;59.20;;;;;;5051151;28;20037;-80
2021/07/08 11:11:21;;;;;;;1.35;1.05;;;34.00;58.90;;;;;;5051496;28;20025;-79
2021/07/08 11:13:50;;;;;;;0.20;0.20;;;34.00;59.50;;;;;;5051469;28;20438;-78
2021/07/08 11:16:50;;;;;;;0.98;0.80;;;34.50;59.30;;;;;;5051835;28;20366;-80
2021/07/08 11:19:33;;;;;;;0.50;0.50;;;34.50;58.80;;;;;;5051176;28;20044;-78
2021/07/08 11:22:17;;;;;;;1.77;1.60;;;34.10;58.30;;;;;;5051430;28;20514;-78
2021/07/08 11:24:50;;;;;;;1.77;0.80;;;34.30;58.30;;;;;;5051807;28;20037;-79
2021/07/08 11:27:22;;;;;;;0.30;0.30;;;34.40;57.70;;;;;;5051229;28;20071;-79
2021/07/08 11:29:50;;;;;;;1.00;0.82;;;34.60;57.80;;;;;;5051375;28;20056;-80
2021/07/08 11:32:46;;;;;;;0.65;0.47;;;34.70;58.10;;;;;;5051004;28;20179;-79
2021/07/08 11:35:56;;;;;;;1.58;0.90;;;34.90;57.80;;;;;;5051356;28;20078;-80
2021/07/08 11:38:15;;;;;;;2.30;1.50;;;34.80;57.30;;;;;;5047546;28;20041;-77
2021/07/08 11:40:48;;;;;;;1.35;0.68;;;34.60;56.70;;;;;;5051036;28;20044;-80
2021/07/08 11:43:22;;;;;;;1.60;1.27;;;34.40;56.90;;;;;;5050842;28;20048;-79
2021/07/08 11:45:52;;;;;;;1.48;0.75;;;34.60;56.70;;;;;;5050973;28;20036;-79
2021/07/08 11:48:48;;;;;;;0.65;0.65;;;34.60;56.80;;;;;;5053266;28;20364;-79
2021/07/08 11:51:29;;;;;;;0.70;0.70;;;35.20;56.60;;;;;;5052571;28;20040;-80
2021/07/08 11:53:56;;;;;;;0.32;0.32;;;35.00;56.00;;;;;;5074998;28;20419;-80
2021/07/08 11:56:26;;;;;;;0.82;0.77;;;34.80;56.20;;;;;;5074671;28;20040;-78
2021/07/08 11:58:53;;;;;;;1.02;0.82;;;35.20;56.50;;;;;;5074660;28;20037;-79
2021/07/08 12:01:19;;;;;;;0.28;0.28;;;35.30;55.70;;;;;;5057101;28;20399;-78
2021/07/08 12:03:56;;;;;;;0.75;0.52;;;35.40;55.70;;;;;;5074088;28;20499;-79
2021/07/08 12:06:28;;;;;;;2.00;1.08;;;35.60;56.10;;;;;;5074681;28;20029;-79
2021/07/08 12:08:58;;;;;;;0.73;0.50;;;35.50;55.50;;;;;;5074749;28;20028;-79
2021/07/08 12:11:45;;;;;;;1.80;1.13;;;35.50;55.40;;;;;;5056772;28;20255;-80
2021/07/08 12:14:15;;;;;;;0.30;0.30;;;35.30;55.10;;;;;;5056396;28;20032;-79
2021/07/08 12:16:46;;;;;;;1.40;0.85;;;35.10;54.80;;;;;;5074882;28;20044;-80
2021/07/08 12:19:15;;;;;;;3.95;1.17;;;35.20;55.30;;;;;;5073999;28;20033;-79
2021/07/08 12:21:43;;;;;;;0.55;0.43;;;35.20;55.30;;;;;;5074263;28;20047;-78
2021/07/08 12:24:25;;;;;;;0.70;0.60;;;35.10;54.70;;;;;;5074038;28;20044;-80
2021/07/08 12:26:56;;;;;;;1.40;0.80;;;35.40;54.90;;;;;;5074278;28;20159;-78
2021/07/08 12:29:26;;;;;;;1.85;1.13;;;35.50;55.00;;;;;;5056225;28;20092;-78
2021/07/08 12:32:05;;;;;;;0.25;0.25;;;35.40;54.80;;;;;;5074136;28;20028;-77
2021/07/08 12:34:38;;;;;;;1.30;0.95;;;35.70;54.50;;;;;;5073670;28;20385;-79
2021/07/08 12:37:21;;;;;;;0.88;0.77;;;36.00;54.40;;;;;;5074265;28;20081;-79
2021/07/08 12:40:04;;;;;;;1.38;1.27;;;35.80;54.00;;;;;;5055740;28;20044;-80
2021/07/08 12:42:35;;;;;;;0.88;0.63;;;36.20;54.20;;;;;;5074387;28;20036;-79
2021/07/08 12:45:12;;;;;;;0.32;0.32;;;36.10;53.00;;;;;;5073635;28;20056;-79
2021/07/08 12:47:42;;;;;;;0.77;0.52;;;35.80;53.10;;;;;;5073784;28;20063;-80
2021/07/08 12:50:10;;;;;;;0.68;0.63;;;36.00;53.60;;;;;;5057294;28;20095;-80
2021/07/08 12:52:37;;;;;;;0.47;0.47;;;35.90;53.40;;;;;;5054277;28;20029;-79
2021/07/08 12:55:07;;;;;;;0.40;0.40;;;35.80;53.60;;;;;;5053354;28;20045;-80
2021/07/08 12:57:33;;;;;;;0.63;0.60;;;36.40;52.90;;;;;;5053670;28;20040;-78
2021/07/08 13:00:09;;;;;;;1.25;0.68;;;36.40;52.70;;;;;;5053655;28;20459;-79
2021/07/08 13:02:36;;;;;;;0.90;0.55;;;36.50;52.90;;;;;;5034890;28;20036;-78